createdAt,value
2022-08-30T00:01:57.882Z,16.73
2022-08-30T00:04:24.535Z,16.43
2022-08-30T00:06:50.985Z,16.63
2022-08-30T00:09:17.479Z,16.69
2022-08-30T00:11:43.880Z,16.66
2022-08-30T00:14:10.387Z,16.68
2022-08-30T00:16:36.853Z,16.43
2022-08-30T00:19:06.394Z,16.66
2022-08-30T00:21:39.454Z,16.62
2022-08-30T00:24:06.192Z,16.60
2022-08-30T00:26:32.586Z,16.53
2022-08-30T00:28:59.080Z,16.52
2022-08-30T00:31:25.586Z,16.49
2022-08-30T00:33:52.150Z,16.42
2022-08-30T00:36:18.565Z,16.39
2022-08-30T00:38:45.091Z,16.27
2022-08-30T00:41:11.590Z,16.26
2022-08-30T00:43:38.240Z,16.29
2022-08-30T00:46:08.681Z,16.30
2022-08-30T00:48:38.904Z,16.29
2022-08-30T00:51:11.689Z,16.42
2022-08-30T00:53:42.567Z,16.35
2022-08-30T00:56:10.119Z,16.24
2022-08-30T00:58:42.442Z,16.47
2022-08-30T01:01:09.822Z,16.53
2022-08-30T01:03:38.175Z,16.58
2022-08-30T01:06:05.852Z,16.63
2022-08-30T01:08:32.355Z,16.66
2022-08-30T01:11:00.178Z,16.54
2022-08-30T01:13:27.565Z,16.74
2022-08-30T01:15:54.855Z,16.52
2022-08-30T01:18:23.719Z,16.71
2022-08-30T01:21:01.353Z,16.85
2022-08-30T01:23:28.793Z,16.90
2022-08-30T01:25:56.663Z,16.90
2022-08-30T01:28:25.658Z,16.93
2022-08-30T01:30:53.223Z,16.99
2022-08-30T01:33:20.880Z,16.97
2022-08-30T01:35:47.410Z,17.06
2022-08-30T01:38:14.890Z,17.07
2022-08-30T01:40:41.644Z,17.04
2022-08-30T01:43:10.075Z,17.03
2022-08-30T01:45:36.639Z,17.09
2022-08-30T01:48:03.839Z,17.12
2022-08-30T01:50:33.889Z,16.96
2022-08-30T01:53:00.863Z,17.14
2022-08-30T01:55:27.752Z,17.09
2022-08-30T01:57:54.278Z,17.10
2022-08-30T02:00:20.842Z,17.14
2022-08-30T02:02:47.360Z,17.15
2022-08-30T02:05:13.827Z,17.01
2022-08-30T02:07:40.424Z,17.15
2022-08-30T02:10:07.560Z,17.16
2022-08-30T02:12:34.890Z,17.17
2022-08-30T02:15:01.383Z,17.14
2022-08-30T02:17:27.951Z,17.06
2022-08-30T02:19:54.438Z,17.15
2022-08-30T02:22:20.989Z,17.14
2022-08-30T02:24:47.437Z,17.12
2022-08-30T02:27:13.823Z,17.13
2022-08-30T02:29:40.331Z,17.07
2022-08-30T02:32:06.991Z,17.15
2022-08-30T02:34:33.842Z,17.00
2022-08-30T02:37:01.001Z,17.18
2022-08-30T02:39:27.588Z,17.16
2022-08-30T02:41:54.051Z,17.20
2022-08-30T02:44:20.516Z,17.13
2022-08-30T02:46:48.267Z,17.13
2022-08-30T02:49:33.575Z,17.20
2022-08-30T02:52:00.242Z,17.04
2022-08-30T02:54:26.778Z,17.11
2022-08-30T02:56:53.931Z,17.12
2022-08-30T02:59:20.406Z,17.15
2022-08-30T03:01:46.961Z,17.16
2022-08-30T03:04:13.446Z,17.19
2022-08-30T03:06:41.405Z,17.25
2022-08-30T03:09:08.131Z,17.24
2022-08-30T03:11:34.826Z,17.24
2022-08-30T03:14:01.314Z,17.25
2022-08-30T03:16:27.934Z,17.25
2022-08-30T03:18:54.481Z,17.06
2022-08-30T03:21:20.938Z,17.18
2022-08-30T03:23:47.421Z,17.18
2022-08-30T03:26:14.995Z,17.18
2022-08-30T03:28:43.084Z,17.13
2022-08-30T03:31:10.083Z,16.98
2022-08-30T03:33:40.000Z,17.03
2022-08-30T03:36:08.478Z,16.91
2022-08-30T03:38:35.124Z,16.98
2022-08-30T03:41:01.825Z,16.92
2022-08-30T03:43:28.506Z,16.97
2022-08-30T03:45:55.911Z,16.95
2022-08-30T03:48:22.400Z,16.88
2022-08-30T03:50:48.816Z,16.80
2022-08-30T03:53:15.418Z,16.92
2022-08-30T03:55:41.911Z,16.93
2022-08-30T03:58:08.408Z,16.98
2022-08-30T04:00:34.787Z,16.99
2022-08-30T04:03:01.443Z,17.00
2022-08-30T04:05:27.938Z,17.02
2022-08-30T04:07:54.740Z,17.03
2022-08-30T04:10:21.430Z,16.91
2022-08-30T04:12:50.986Z,17.04
2022-08-30T04:15:19.485Z,17.07
2022-08-30T04:17:46.415Z,17.05
2022-08-30T04:20:12.859Z,16.96
2022-08-30T04:22:39.338Z,17.00
2022-08-30T04:25:06.819Z,17.08
2022-08-30T04:27:33.709Z,17.07
2022-08-30T04:30:00.634Z,16.99
2022-08-30T04:32:27.617Z,17.09
2022-08-30T04:34:58.534Z,17.00
2022-08-30T04:37:25.174Z,17.04
2022-08-30T04:39:55.893Z,17.05
2022-08-30T04:42:22.332Z,16.80
2022-08-30T04:44:49.023Z,17.10
2022-08-30T04:47:15.440Z,17.13
2022-08-30T04:49:41.875Z,17.02
2022-08-30T04:52:10.133Z,17.02
2022-08-30T04:54:36.886Z,16.94
2022-08-30T04:57:03.719Z,17.11
2022-08-30T04:59:30.187Z,17.12
2022-08-30T05:01:56.686Z,17.13
2022-08-30T05:04:23.168Z,16.84
2022-08-30T05:06:49.669Z,17.05
2022-08-30T05:09:16.342Z,17.13
2022-08-30T05:11:43.367Z,17.12
2022-08-30T05:14:10.556Z,17.01
2022-08-30T05:16:37.186Z,16.98
2022-08-30T05:19:03.983Z,17.13
2022-08-30T05:21:30.571Z,17.18
2022-08-30T05:24:00.095Z,17.19
2022-08-30T05:26:35.997Z,17.19
2022-08-30T05:29:02.567Z,17.20
2022-08-30T05:31:31.972Z,17.04
2022-08-30T05:33:59.152Z,17.23
2022-08-30T05:36:28.191Z,17.22
2022-08-30T05:38:55.526Z,17.24
2022-08-30T05:41:26.697Z,17.22
2022-08-30T05:43:58.848Z,17.31
2022-08-30T05:46:29.411Z,17.32
2022-08-30T05:48:57.278Z,17.20
2022-08-30T05:51:26.509Z,17.35
2022-08-30T05:53:53.863Z,17.28
2022-08-30T05:56:24.807Z,17.48
2022-08-30T05:58:52.419Z,17.32
2022-08-30T06:01:25.593Z,17.58
2022-08-30T06:03:54.378Z,17.59
2022-08-30T06:06:21.635Z,17.54
2022-08-30T06:08:49.111Z,17.51
2022-08-30T06:11:19.346Z,17.82
2022-08-30T06:13:46.160Z,18.06
2022-08-30T06:16:14.180Z,18.00
2022-08-30T06:18:40.968Z,17.89
2022-08-30T06:21:07.437Z,18.16
2022-08-30T06:23:34.228Z,18.29
2022-08-30T06:26:07.664Z,18.34
2022-08-30T06:28:34.948Z,18.44
2022-08-30T06:31:01.792Z,18.57
2022-08-30T06:33:28.299Z,18.71
2022-08-30T06:35:58.352Z,18.83
2022-08-30T06:38:25.155Z,18.87
2022-08-30T06:40:51.585Z,19.11
2022-08-30T06:43:18.270Z,19.21
2022-08-30T06:45:44.705Z,19.39
2022-08-30T06:48:11.250Z,19.51
2022-08-30T06:50:38.081Z,19.57
2022-08-30T06:53:06.025Z,19.66
2022-08-30T06:55:33.462Z,19.71
2022-08-30T06:58:01.278Z,19.95
2022-08-30T07:00:28.904Z,20.05
2022-08-30T07:02:55.534Z,20.16
2022-08-30T07:05:23.580Z,20.19
2022-08-30T07:07:54.206Z,20.35
2022-08-30T07:10:21.784Z,20.52
2022-08-30T07:12:48.860Z,20.63
2022-08-30T07:15:15.668Z,20.78
2022-08-30T07:18:00.813Z,20.88
2022-08-30T07:20:27.413Z,21.04
2022-08-30T07:22:53.893Z,21.14
2022-08-30T07:25:20.561Z,21.24
2022-08-30T07:27:47.074Z,21.34
2022-08-30T07:30:14.116Z,21.25
2022-08-30T07:32:40.672Z,21.58
2022-08-30T07:35:07.410Z,21.70
2022-08-30T07:37:33.987Z,21.81
2022-08-30T07:40:00.622Z,21.92
2022-08-30T07:42:27.381Z,21.80
2022-08-30T07:44:56.778Z,22.10
2022-08-30T07:47:23.569Z,22.22
2022-08-30T07:49:50.042Z,22.32
2022-08-30T07:52:16.473Z,22.43
2022-08-30T07:54:43.107Z,22.50
2022-08-30T07:57:09.711Z,22.65
2022-08-30T07:59:36.376Z,22.76
2022-08-30T08:02:03.458Z,22.87
2022-08-30T08:04:29.995Z,22.96
2022-08-30T08:06:56.425Z,23.11
2022-08-30T08:09:23.037Z,23.21
2022-08-30T08:11:49.779Z,23.05
2022-08-30T08:16:48.463Z,23.24
2022-08-30T08:19:15.479Z,23.58
2022-08-30T08:21:41.967Z,23.57
2022-08-30T08:24:08.602Z,23.77
2022-08-30T08:26:37.350Z,23.84
2022-08-30T08:29:05.826Z,23.79
2022-08-30T08:31:33.326Z,23.98
2022-08-30T08:34:03.078Z,23.68
2022-08-30T08:36:31.285Z,23.89
2022-08-30T08:38:58.552Z,24.05
2022-08-30T08:41:40.210Z,24.11
2022-08-30T08:44:34.752Z,24.05
2022-08-30T08:47:36.669Z,24.12
2022-08-30T08:50:08.107Z,24.12
2022-08-30T08:53:20.386Z,24.22
2022-08-30T08:55:53.161Z,24.00
2022-08-30T08:58:29.403Z,24.25
2022-08-30T09:00:58.101Z,24.20
2022-08-30T09:03:28.400Z,24.38
2022-08-30T09:05:55.494Z,24.37
2022-08-30T09:08:23.525Z,24.42
2022-08-30T09:11:01.689Z,24.47
2022-08-30T09:13:28.475Z,24.49
2022-08-30T09:15:59.558Z,24.50
2022-08-30T09:18:51.372Z,24.31
2022-08-30T09:21:25.644Z,24.37
2022-08-30T09:24:00.930Z,24.52
2022-08-30T09:26:36.135Z,24.37
2022-08-30T09:29:05.112Z,24.31
2022-08-30T09:31:46.272Z,24.16
2022-08-30T09:34:18.377Z,24.13
2022-08-30T09:36:49.770Z,23.92
2022-08-30T09:39:34.498Z,24.06
2022-08-30T09:42:31.021Z,24.04
2022-08-30T09:45:10.459Z,24.00
2022-08-30T09:47:43.148Z,24.03
2022-08-30T09:50:15.817Z,23.91
2022-08-30T09:52:55.460Z,23.98
2022-08-30T09:55:22.061Z,24.04
2022-08-30T09:58:06.230Z,24.04
2022-08-30T10:00:41.105Z,24.06
2022-08-30T10:03:35.715Z,24.13
2022-08-30T10:06:06.569Z,24.17
2022-08-30T10:08:45.278Z,24.33
2022-08-30T10:11:20.535Z,24.52
2022-08-30T10:13:58.958Z,24.79
2022-08-30T10:16:40.013Z,25.01
2022-08-30T10:19:43.067Z,25.41
2022-08-30T10:22:17.775Z,25.69
2022-08-30T10:24:50.382Z,25.66
2022-08-30T10:27:31.954Z,26.31
2022-08-30T10:30:08.525Z,26.42
2022-08-30T10:32:48.456Z,26.75
2022-08-30T10:35:29.072Z,26.85
2022-08-30T10:38:08.026Z,26.82
2022-08-30T10:40:56.284Z,26.78
2022-08-30T10:43:34.510Z,26.75
2022-08-30T10:46:05.718Z,26.53
2022-08-30T10:48:44.358Z,26.34
2022-08-30T10:51:41.932Z,26.43
2022-08-30T10:54:18.566Z,26.14
2022-08-30T10:56:49.570Z,26.07
2022-08-30T10:59:20.435Z,26.01
2022-08-30T11:02:07.746Z,25.78
2022-08-30T11:04:45.466Z,25.84
2022-08-30T11:07:30.840Z,25.69
2022-08-30T11:10:16.122Z,25.56
2022-08-30T11:12:51.392Z,25.46
2022-08-30T11:15:24.652Z,25.36
2022-08-30T11:18:09.414Z,25.38
2022-08-30T11:20:50.043Z,25.28
2022-08-30T11:23:36.371Z,25.07
2022-08-30T11:26:12.079Z,25.04
2022-08-30T11:28:47.307Z,24.92
2022-08-30T11:31:23.652Z,24.85
2022-08-30T11:33:58.861Z,24.76
2022-08-30T11:36:37.420Z,24.78
2022-08-30T11:39:10.631Z,24.76
2022-08-30T11:41:43.178Z,24.70
2022-08-30T11:44:28.617Z,24.80
2022-08-30T11:47:01.899Z,24.82
2022-08-30T11:50:09.718Z,25.06
2022-08-30T11:52:56.487Z,25.14
2022-08-30T11:55:23.096Z,25.25
2022-08-30T11:58:24.055Z,25.51
2022-08-30T12:01:40.949Z,25.72
2022-08-30T12:04:05.941Z,25.88
2022-08-30T12:06:41.533Z,26.08
2022-08-30T12:09:33.299Z,26.13
2022-08-30T12:12:05.868Z,26.22
2022-08-30T12:14:37.105Z,26.19
2022-08-30T12:17:35.983Z,26.18
2022-08-30T12:20:05.327Z,26.01
2022-08-30T12:22:37.755Z,25.76
2022-08-30T12:25:16.644Z,25.91
2022-08-30T12:27:43.195Z,25.67
2022-08-30T12:30:10.330Z,25.70
2022-08-30T12:32:45.891Z,25.81
2022-08-30T12:35:25.625Z,25.97
2022-08-30T12:38:06.065Z,26.25
2022-08-30T12:40:34.595Z,26.46
2022-08-30T12:43:07.752Z,26.77
2022-08-30T12:45:44.050Z,27.12
2022-08-30T12:48:15.807Z,27.49
2022-08-30T12:50:55.147Z,28.03
2022-08-30T12:53:29.587Z,28.47
2022-08-30T12:55:59.647Z,28.77
2022-08-30T12:58:35.888Z,29.16
2022-08-30T13:01:28.716Z,29.55
2022-08-30T13:04:11.070Z,29.73
2022-08-30T13:06:48.528Z,30.10
2022-08-30T13:09:42.645Z,30.55
2022-08-30T13:12:30.901Z,30.68
2022-08-30T13:15:20.729Z,30.99
2022-08-30T13:17:47.367Z,30.77
2022-08-30T13:20:16.536Z,30.81
2022-08-30T13:23:02.800Z,30.80
2022-08-30T13:25:30.863Z,30.57
2022-08-30T13:28:01.143Z,30.48
2022-08-30T13:30:28.284Z,30.35
2022-08-30T13:32:55.833Z,30.19
2022-08-30T13:35:22.494Z,30.06
2022-08-30T13:37:50.667Z,29.78
2022-08-30T13:40:19.420Z,29.28
2022-08-30T13:42:46.799Z,28.89
2022-08-30T13:48:01.725Z,28.52
2022-08-30T13:50:28.203Z,28.40
2022-08-30T13:52:56.951Z,28.41
2022-08-30T13:55:23.483Z,28.41
2022-08-30T13:57:57.347Z,28.52
2022-08-30T14:00:25.608Z,28.58
2022-08-30T14:02:57.184Z,28.68
2022-08-30T14:11:05.167Z,29.61
2022-08-30T14:13:32.156Z,29.49
2022-08-30T14:18:48.872Z,29.76
2022-08-30T14:21:15.672Z,29.86
2022-08-30T14:23:42.176Z,29.89
2022-08-30T14:26:15.269Z,29.93
2022-08-30T14:28:44.801Z,29.77
2022-08-30T14:31:12.004Z,29.88
2022-08-30T14:33:39.827Z,29.83
2022-08-30T14:36:10.941Z,29.82
2022-08-30T14:38:39.701Z,29.92
2022-08-30T16:09:30.084Z,24.47
2022-08-30T16:11:59.571Z,24.82
2022-08-30T16:14:27.546Z,25.14
2022-08-30T16:16:55.262Z,25.23
2022-08-30T16:19:21.701Z,25.36
2022-08-30T16:21:48.668Z,25.34
2022-08-30T16:24:15.331Z,25.30
2022-08-30T16:26:43.053Z,25.13
2022-08-30T16:29:10.037Z,24.94
2022-08-30T16:31:37.224Z,24.87
2022-08-30T16:34:04.754Z,24.94
2022-08-30T16:36:32.674Z,24.87
2022-08-30T16:38:59.407Z,24.77
2022-08-30T16:41:26.003Z,24.98
2022-08-30T16:43:53.333Z,24.81
2022-08-30T16:46:26.905Z,24.92
2022-08-30T16:48:56.342Z,25.07
2022-08-30T16:51:25.202Z,25.06
2022-08-30T16:53:56.977Z,24.96
2022-08-30T16:56:26.542Z,24.89
2022-08-30T16:59:00.821Z,25.27
2022-08-30T17:01:30.128Z,25.09
2022-08-30T17:03:56.890Z,25.05
2022-08-30T17:06:23.578Z,24.94
2022-08-30T17:08:50.714Z,24.91
2022-08-30T17:11:22.765Z,24.87
2022-08-30T17:13:49.211Z,24.70
2022-08-30T17:16:17.681Z,24.51
2022-08-30T17:18:53.732Z,24.25
2022-08-30T17:21:20.317Z,24.00
2022-08-30T17:23:49.327Z,23.79
2022-08-30T17:26:16.618Z,23.54
2022-08-30T17:28:43.172Z,23.29
2022-08-30T17:31:11.231Z,23.01
2022-08-30T17:33:39.835Z,22.74
2022-08-30T17:36:07.218Z,22.52
2022-08-30T17:38:33.949Z,22.22
2022-08-30T17:41:05.241Z,22.23
2022-08-30T17:43:32.856Z,22.05
2022-08-30T17:46:06.961Z,21.99
2022-08-30T17:48:34.539Z,21.80
2022-08-30T17:51:02.513Z,21.63
2022-08-30T17:53:29.932Z,21.40
2022-08-30T17:55:56.501Z,21.21
2022-08-30T17:58:25.079Z,21.09
2022-08-30T18:00:54.050Z,20.86
2022-08-30T18:03:20.786Z,20.70
2022-08-30T18:05:47.517Z,20.47
2022-08-30T18:08:14.147Z,20.40
2022-08-30T18:10:40.769Z,19.99
2022-08-30T18:13:07.485Z,20.06
2022-08-30T18:15:33.927Z,19.76
2022-08-30T18:18:00.687Z,19.71
2022-08-30T18:20:27.197Z,19.37
2022-08-30T18:22:57.867Z,19.28
2022-08-30T18:25:24.386Z,19.13
2022-08-30T18:27:57.101Z,19.06
2022-08-30T18:30:31.188Z,18.90
2022-08-30T18:33:00.721Z,18.71
2022-08-30T18:35:27.582Z,18.52
2022-08-30T18:37:54.239Z,18.40
2022-08-30T18:40:21.110Z,18.34
2022-08-30T18:42:47.805Z,18.20
2022-08-30T18:45:18.970Z,18.09
2022-08-30T18:47:45.412Z,17.91
2022-08-30T18:50:12.496Z,17.88
2022-08-30T18:52:39.129Z,17.66
2022-08-30T18:55:07.273Z,17.70
2022-08-30T18:57:35.077Z,17.51
2022-08-30T19:00:03.605Z,17.36
2022-08-30T19:02:30.287Z,17.42
2022-08-30T19:04:56.835Z,17.33
2022-08-30T19:07:26.684Z,17.14
2022-08-30T19:09:58.929Z,17.13
2022-08-30T19:12:26.159Z,16.92
2022-08-30T19:14:54.179Z,16.87
2022-08-30T19:17:22.946Z,16.93
2022-08-30T19:19:52.399Z,16.81
2022-08-30T19:22:21.502Z,16.69
2022-08-30T19:24:50.039Z,16.68
2022-08-30T19:27:19.154Z,16.60
2022-08-30T19:29:53.679Z,16.49
2022-08-30T19:32:20.703Z,16.44
2022-08-30T19:34:47.137Z,16.13
2022-08-30T19:37:18.629Z,16.30
2022-08-30T19:39:46.765Z,16.10
2022-08-30T19:42:13.897Z,16.12
2022-08-30T19:44:40.387Z,16.11
2022-08-30T19:47:07.452Z,16.04
2022-08-30T19:49:35.034Z,15.98
2022-08-30T19:52:01.811Z,15.93
2022-08-30T19:54:28.277Z,15.88
2022-08-30T19:56:54.721Z,15.77
2022-08-30T19:59:21.119Z,15.64
2022-08-30T20:01:47.940Z,15.56
2022-08-30T20:04:15.904Z,15.62
2022-08-30T20:06:42.535Z,15.54
2022-08-30T20:09:10.543Z,15.42
2022-08-30T20:11:38.341Z,15.32
2022-08-30T20:14:05.243Z,15.23
2022-08-30T20:16:37.895Z,15.32
2022-08-30T20:19:06.150Z,15.20
2022-08-30T20:21:32.786Z,15.20
2022-08-30T20:24:00.836Z,15.12
2022-08-30T20:26:33.478Z,15.00
2022-08-30T20:29:01.787Z,14.95
2022-08-30T20:31:29.004Z,14.99
2022-08-30T20:33:55.521Z,14.84
2022-08-30T20:36:21.991Z,14.87
2022-08-30T20:38:48.636Z,14.66
2022-08-30T20:41:17.765Z,14.71
2022-08-30T20:43:45.405Z,14.68
2022-08-30T20:46:17.454Z,14.59
2022-08-30T20:48:44.455Z,14.55
2022-08-30T20:51:14.370Z,14.51
2022-08-30T20:53:41.213Z,14.43
2022-08-30T20:56:16.170Z,14.32
2022-08-30T20:58:43.207Z,14.32
2022-08-30T21:01:11.868Z,14.27
2022-08-30T21:03:39.298Z,14.09
2022-08-30T21:06:07.374Z,14.13
2022-08-30T21:08:34.091Z,14.07
2022-08-30T21:11:00.721Z,13.90
2022-08-30T21:13:27.266Z,13.88
2022-08-30T21:15:56.154Z,13.83
2022-08-30T21:18:32.950Z,13.86
2022-08-30T21:21:07.349Z,13.79
2022-08-30T21:23:35.335Z,13.76
2022-08-30T21:26:05.614Z,13.52
2022-08-30T21:28:32.081Z,13.79
2022-08-30T21:31:12.603Z,13.67
2022-08-30T21:33:40.308Z,13.63
2022-08-30T21:36:26.708Z,13.44
2022-08-30T21:38:53.869Z,13.44
2022-08-30T21:41:26.931Z,13.45
2022-08-30T21:43:58.030Z,13.44
2022-08-30T21:46:26.181Z,13.35
2022-08-30T21:48:53.529Z,13.32
2022-08-30T21:51:20.936Z,13.32
2022-08-30T21:53:49.665Z,13.22
2022-08-30T21:56:21.699Z,13.24
2022-08-30T21:58:49.138Z,13.08
2022-08-30T22:01:18.769Z,13.09
2022-08-30T22:03:45.471Z,13.13
2022-08-30T22:06:14.208Z,12.89
2022-08-30T22:08:43.048Z,13.06
2022-08-30T22:11:12.026Z,13.03
2022-08-30T22:13:41.712Z,12.96
2022-08-30T22:16:09.599Z,12.89
2022-08-30T22:18:36.859Z,12.80
2022-08-30T22:21:04.198Z,12.88
2022-08-30T22:23:34.344Z,12.79
2022-08-30T22:26:02.427Z,12.81
2022-08-30T22:28:29.103Z,12.77
2022-08-30T22:30:55.746Z,12.76
2022-08-30T22:33:22.234Z,12.63
2022-08-30T22:35:48.781Z,12.66
2022-08-30T22:38:15.469Z,12.60
2022-08-30T22:40:50.050Z,12.49
2022-08-30T22:43:17.232Z,12.51
2022-08-30T22:45:44.515Z,12.38
2022-08-30T22:48:11.791Z,12.36
2022-08-30T22:50:38.411Z,12.35
2022-08-30T22:53:05.430Z,12.35
2022-08-30T22:55:32.513Z,12.30
2022-08-30T22:57:59.086Z,12.05
2022-08-30T23:00:25.695Z,12.14
2022-08-30T23:02:53.791Z,12.18
2022-08-30T23:05:22.962Z,11.98
2022-08-30T23:07:50.748Z,12.10
2022-08-30T23:10:17.534Z,12.00
2022-08-30T23:12:44.080Z,11.98
2022-08-30T23:15:14.215Z,12.03
2022-08-30T23:17:40.885Z,11.96
2022-08-30T23:20:08.354Z,11.95
2022-08-30T23:22:34.804Z,11.82
2022-08-30T23:25:19.575Z,11.89
2022-08-30T23:28:05.226Z,11.78
2022-08-30T23:30:49.978Z,11.79
2022-08-30T23:33:35.071Z,11.74
2022-08-30T23:36:32.052Z,11.75
2022-08-30T23:39:17.619Z,11.67
2022-08-30T23:42:02.562Z,11.61
2022-08-30T23:44:47.653Z,11.50
2022-08-30T23:47:32.644Z,11.55
2022-08-30T23:50:17.675Z,11.46
2022-08-30T23:53:02.722Z,11.46
2022-08-30T23:55:47.577Z,11.42
2022-08-30T23:58:32.714Z,11.33
